Terminal Aerodrome Forecast
Issued by NWS Sioux Falls, SD

Home | Current Version | Previous Version | Graphics & Text | Print | Product List | Glossary Off
Versions: 1 2 3 4 5 6 7 8 9 10 11 12

000
FTUS43 KFSD 031723
TAFHON
TAF
KHON 031723Z 0318/0418 34024G35KT 6SM BLSN BKN035
     FM032100 32020G30KT P6SM SCT025 BKN100
     FM040000 30012KT P6SM SKC
     FM040500 29007KT P6SM SCT040
     FM041400 33012KT P6SM SKC=

USA.gov is the U.S. government's official web portal to all federal, state and local government web resources and services.